Time;durP1;ratioP1;P1;durP2;ratioP2;P2;SDS_P1;SDS_P2;PMS_P1;PMS_P2;Temp;Humidity;BMP_temperature;BMP_pressure;BME280_temperature;BME280_humidity;BME280_pressure;Samples;Min_cycle;Max_cycle;Signal;HPM_P1;HPM_P2
2023/04/14 00:00:25;;;;;;;12.23;2.70;;;;;;;10.94;58.18;100896.88;4981812;28;20125;-41
2023/04/14 00:02:50;;;;;;;9.20;2.60;;;;;;;10.90;58.06;100899.44;4986456;28;20050;-40
2023/04/14 00:05:16;;;;;;;11.65;2.80;;;;;;;10.90;58.20;100899.44;4983647;28;20046;-41
2023/04/14 00:07:41;;;;;;;10.57;2.90;;;;;;;10.83;58.33;100897.63;4984838;28;20035;-44
2023/04/14 00:10:07;;;;;;;12.10;2.90;;;;;;;10.79;58.47;100901.03;4980173;28;20053;-41
2023/04/14 00:12:32;;;;;;;14.02;3.00;;;;;;;10.76;58.69;100911.41;4982739;28;20525;-42
2023/04/14 00:14:57;;;;;;;11.07;2.70;;;;;;;10.76;58.63;100906.22;4982730;28;20034;-41
2023/04/14 00:17:23;;;;;;;11.65;2.80;;;;;;;10.71;58.49;100913.09;4979252;28;20066;-42
2023/04/14 00:19:48;;;;;;;11.77;3.00;;;;;;;10.69;59.00;100906.97;4987393;28;20105;-41
2023/04/14 00:22:13;;;;;;;8.00;3.00;;;;;;;10.66;59.23;100909.56;4983563;28;20420;-41
2023/04/14 00:24:44;;;;;;;13.82;3.13;;;;;;;10.54;59.74;100911.16;4983208;28;20513;-41
2023/04/14 00:27:10;;;;;;;15.52;3.00;;;;;;;10.62;59.83;100915.56;4979819;28;20089;-41
2023/04/14 00:29:37;;;;;;;11.15;3.13;;;;;;;10.56;60.20;100909.41;4983776;28;20567;-42
2023/04/14 00:32:03;;;;;;;13.95;3.17;;;;;;;10.53;59.87;100909.38;4979583;28;20142;-41
2023/04/14 00:34:28;;;;;;;10.10;2.92;;;;;;;10.56;59.60;100906.81;4983557;28;20117;-42
2023/04/14 00:36:54;;;;;;;12.30;3.03;;;;;;;10.65;59.40;100907.81;4983738;28;20034;-42
2023/04/14 00:39:19;;;;;;;12.43;2.85;;;;;;;10.62;59.79;100908.63;4979367;28;20520;-43
2023/04/14 00:41:44;;;;;;;11.18;3.00;;;;;;;10.61;59.72;100911.22;4982519;28;20030;-42
2023/04/14 00:44:10;;;;;;;11.60;3.05;;;;;;;10.52;60.17;100918.06;4979171;28;20122;-40
2023/04/14 00:46:35;;;;;;;10.90;2.95;;;;;;;10.47;60.50;100916.25;4984343;28;20034;-43
2023/04/14 00:49:02;;;;;;;12.70;3.15;;;;;;;10.49;60.28;100911.94;4979315;28;20034;-40
2023/04/14 00:51:27;;;;;;;12.60;2.90;;;;;;;10.49;60.40;100918.00;4982945;28;20042;-41
2023/04/14 00:53:54;;;;;;;13.07;3.20;;;;;;;10.46;60.10;100922.31;4982934;28;20039;-42
2023/04/14 00:56:20;;;;;;;9.68;2.90;;;;;;;10.47;60.14;100916.25;4983489;28;20041;-42
2023/04/14 00:58:45;;;;;;;17.80;3.17;;;;;;;10.48;60.29;100915.41;4985511;28;20030;-43
2023/04/14 01:01:11;;;;;;;10.63;3.00;;;;;;;10.48;60.19;100926.69;4978840;28;20045;-42
2023/04/14 01:03:37;;;;;;;13.63;3.03;;;;;;;10.41;60.25;100921.38;4982607;28;20046;-40
2023/04/14 01:06:02;;;;;;;8.20;2.70;;;;;;;10.41;60.12;100926.56;4978806;28;20515;-42
2023/04/14 01:08:28;;;;;;;9.30;2.60;;;;;;;10.42;60.38;100936.16;4982293;28;20049;-45
2023/04/14 01:11:08;;;;;;;6.85;2.42;;;;;;;10.38;60.30;100937.81;4982589;28;20038;-45
2023/04/14 01:14:08;;;;;;;8.80;2.45;;;;;;;10.33;60.37;100934.28;4980908;28;20125;-45
2023/04/14 01:16:38;;;;;;;7.72;2.30;;;;;;;10.30;60.76;100928.16;4915909;28;20505;-43
2023/04/14 01:19:41;;;;;;;8.95;2.47;;;;;;;10.20;61.20;100931.44;4983942;28;20544;-42
2023/04/14 01:22:09;;;;;;;8.18;2.08;;;;;;;10.23;61.17;100928.91;4983828;28;20030;-41
2023/04/14 01:24:59;;;;;;;8.60;2.40;;;;;;;10.25;61.23;100932.38;4987646;28;20464;-42
2023/04/14 01:27:50;;;;;;;8.57;2.20;;;;;;;10.21;61.52;100922.78;4984447;28;20035;-42
2023/04/14 01:30:41;;;;;;;11.55;1.85;;;;;;;10.15;62.18;100920.94;4983768;28;20049;-44
2023/04/14 01:33:11;;;;;;;9.20;1.90;;;;;;;10.22;61.88;100925.41;4984990;28;20672;-40
2023/04/14 01:35:43;;;;;;;6.45;1.83;;;;;;;10.16;62.05;100925.28;4990851;28;20493;-41
2023/04/14 01:38:13;;;;;;;6.45;1.85;;;;;;;10.23;62.02;100924.56;4986164;28;20120;-42
2023/04/14 01:40:41;;;;;;;7.18;1.85;;;;;;;10.20;62.29;100924.50;4989970;28;20063;-45
2023/04/14 01:43:12;;;;;;;9.63;1.40;;;;;;;10.25;61.55;100925.47;4984649;28;20030;-42
2023/04/14 01:45:43;;;;;;;7.55;1.60;;;;;;;10.20;61.98;100927.13;4990309;28;20038;-43
2023/04/14 01:48:10;;;;;;;6.15;1.60;;;;;;;10.21;62.30;100922.78;4985145;28;20049;-43
2023/04/14 01:50:36;;;;;;;6.78;1.60;;;;;;;10.18;61.92;100926.25;4985763;28;20437;-43
2023/04/14 01:53:07;;;;;;;6.40;1.50;;;;;;;10.13;62.38;100925.22;4983710;28;20045;-42
2023/04/14 01:55:36;;;;;;;5.80;1.50;;;;;;;10.14;62.32;100921.78;4987990;28;20038;-46
2023/04/14 01:58:04;;;;;;;7.82;1.45;;;;;;;10.07;62.70;100936.44;4982615;28;20037;-46
2023/04/14 02:00:30;;;;;;;5.68;1.50;;;;;;;10.16;62.46;100923.59;4985729;28;20039;-45
2023/04/14 02:02:56;;;;;;;7.30;1.63;;;;;;;10.07;63.42;100932.94;4985149;28;20596;-43
2023/04/14 02:05:23;;;;;;;6.93;1.83;;;;;;;10.12;63.00;100924.34;4981891;28;20170;-43
2023/04/14 02:07:52;;;;;;;13.80;1.70;;;;;;;10.11;62.74;100933.03;4985360;28;20031;-42
2023/04/14 02:10:20;;;;;;;7.28;1.75;;;;;;;10.13;62.65;100923.50;4987448;28;20041;-42
2023/04/14 02:12:47;;;;;;;10.60;1.70;;;;;;;10.05;62.86;100922.53;4990106;28;20050;-40
2023/04/14 02:15:16;;;;;;;7.97;1.80;;;;;;;9.98;63.38;100930.22;4983632;28;20124;-43
2023/04/14 02:17:43;;;;;;;7.30;1.50;;;;;;;10.04;63.48;100928.59;4985660;28;20121;-41
2023/04/14 02:20:10;;;;;;;6.82;1.60;;;;;;;10.12;63.12;100931.31;4982310;28;20038;-42
2023/04/14 02:22:36;;;;;;;5.05;1.42;;;;;;;10.04;63.12;100933.78;4985308;28;20093;-43
2023/04/14 02:25:01;;;;;;;8.05;1.67;;;;;;;10.10;63.25;100935.63;4982303;28;20493;-40
2023/04/14 02:27:37;;;;;;;5.18;1.50;;;;;;;10.07;62.59;100933.81;4986236;28;20048;-44
2023/04/14 02:30:15;;;;;;;4.60;1.60;;;;;;;10.05;62.96;100939.88;4981101;28;20493;-44
2023/04/14 02:32:45;;;;;;;6.60;1.67;;;;;;;9.96;63.39;100937.09;4984721;28;20034;-43
2023/04/14 02:35:17;;;;;;;7.15;1.70;;;;;;;9.99;63.26;100942.38;4981417;28;20038;-43
2023/04/14 02:37:49;;;;;;;8.98;1.83;;;;;;;9.94;63.17;100944.88;4984812;28;20037;-41
2023/04/14 02:40:19;;;;;;;10.48;1.90;;;;;;;9.95;63.32;100943.16;4981272;28;20041;-43
2023/04/14 02:42:49;;;;;;;5.80;1.77;;;;;;;9.92;63.70;100948.34;4984785;28;20030;-43
2023/04/14 02:45:21;;;;;;;7.60;1.98;;;;;;;9.92;63.51;100943.13;4981407;28;20041;-43
2023/04/14 02:47:51;;;;;;;8.95;1.95;;;;;;;9.90;63.64;100940.47;4984811;28;20053;-42
2023/04/14 02:50:19;;;;;;;6.97;1.88;;;;;;;9.91;63.13;100936.16;4981213;28;20508;-42
2023/04/14 02:52:50;;;;;;;8.27;2.00;;;;;;;9.83;64.17;100936.03;4984269;28;20038;-42
2023/04/14 02:55:17;;;;;;;6.95;2.10;;;;;;;9.87;64.23;100942.19;4981152;28;20050;-41
2023/04/14 02:57:43;;;;;;;8.13;2.20;;;;;;;9.84;64.40;100936.91;4984255;28;20038;-42
2023/04/14 03:00:10;;;;;;;7.10;2.10;;;;;;;9.85;64.21;100939.53;4981644;28;20045;-44
2023/04/14 03:02:37;;;;;;;9.68;2.15;;;;;;;9.81;64.33;100939.47;5007452;23;20113;-43
2023/04/14 03:05:03;;;;;;;7.55;2.17;;;;;;;9.77;64.02;100935.91;4984232;28;20040;-45
2023/04/14 03:07:30;;;;;;;6.40;2.00;;;;;;;9.77;64.20;100936.78;4989033;28;20101;-45
2023/04/14 03:09:56;;;;;;;7.40;2.17;;;;;;;9.71;64.39;100934.06;4988656;28;20035;-44
2023/04/14 03:12:24;;;;;;;8.30;2.20;;;;;;;9.78;64.09;100940.28;4983264;28;20030;-44
2023/04/14 03:14:50;;;;;;;7.07;2.22;;;;;;;9.79;63.97;100939.44;4985269;28;20046;-47
2023/04/14 03:17:19;;;;;;;7.07;2.25;;;;;;;9.78;64.32;100942.88;4981310;28;20603;-44
2023/04/14 03:19:47;;;;;;;10.43;2.35;;;;;;;9.77;64.04;100938.50;4985113;28;20069;-45
2023/04/14 03:22:14;;;;;;;9.05;2.25;;;;;;;9.73;64.42;100945.41;4982173;28;20365;-46
2023/04/14 03:24:41;;;;;;;7.78;2.45;;;;;;;9.78;64.26;100945.47;4985081;28;20224;-44
2023/04/14 03:27:13;;;;;;;9.75;2.80;;;;;;;9.77;64.24;100944.59;4981771;28;20022;-45
2023/04/14 03:29:43;;;;;;;8.45;2.60;;;;;;;9.80;64.31;100945.50;4984589;28;20474;-46
2023/04/14 03:32:10;;;;;;;8.52;2.45;;;;;;;9.78;64.03;100950.69;4982077;28;20030;-45
2023/04/14 03:34:39;;;;;;;10.00;2.50;;;;;;;9.76;64.37;100954.97;4985355;28;20027;-44
2023/04/14 03:37:07;;;;;;;8.07;2.55;;;;;;;9.72;64.74;100947.97;4982425;28;20493;-45
2023/04/14 03:39:37;;;;;;;7.45;2.53;;;;;;;9.76;64.17;100952.38;4984374;28;20031;-45
2023/04/14 03:42:04;;;;;;;8.75;2.67;;;;;;;9.73;64.52;100953.22;4983956;28;20357;-44
2023/04/14 03:44:34;;;;;;;7.03;2.40;;;;;;;9.70;64.43;100955.75;4987490;28;20045;-43
2023/04/14 03:47:02;;;;;;;10.13;2.90;;;;;;;9.66;64.61;100958.28;4988397;28;20113;-44
2023/04/14 03:49:32;;;;;;;15.25;3.03;;;;;;;9.61;64.49;100960.81;4984580;28;20563;-50
2023/04/14 03:52:02;;;;;;;9.73;3.08;;;;;;;9.62;64.47;100959.97;4986354;28;20034;-44
2023/04/14 03:54:29;;;;;;;8.25;2.90;;;;;;;9.59;64.67;100959.88;4984087;28;20031;-45
2023/04/14 03:56:57;;;;;;;10.00;3.15;;;;;;;9.58;64.55;100954.66;4986366;28;20027;-44
2023/04/14 03:59:25;;;;;;;9.88;3.20;;;;;;;9.59;64.59;100957.28;4982820;28;20093;-42
2023/04/14 04:01:52;;;;;;;9.23;3.00;;;;;;;9.60;64.48;100955.56;4985101;28;20038;-44
2023/04/14 04:04:18;;;;;;;6.85;2.85;;;;;;;9.60;64.59;100950.34;4980723;28;20440;-46
2023/04/14 04:06:43;;;;;;;9.10;3.13;;;;;;;9.57;64.70;100955.53;4984718;28;20158;-44
2023/04/14 04:09:13;;;;;;;12.50;3.85;;;;;;;9.41;65.71;100956.94;4982775;28;20041;-43
2023/04/14 04:11:40;;;;;;;14.23;3.58;;;;;;;9.52;64.90;100962.34;4985194;28;20106;-44
2023/04/14 04:14:07;;;;;;;10.88;3.35;;;;;;;9.55;65.01;100965.00;4981280;28;20038;-45
2023/04/14 04:16:34;;;;;;;8.38;3.60;;;;;;;9.53;64.86;100967.59;4985262;28;20038;-47
2023/04/14 04:19:04;;;;;;;13.48;4.00;;;;;;;9.40;65.38;100968.19;4985899;28;20416;-44
2023/04/14 04:21:33;;;;;;;12.48;3.97;;;;;;;9.53;64.81;100969.31;4982461;28;20038;-45
2023/04/14 04:24:00;;;;;;;13.73;4.00;;;;;;;9.55;65.15;100972.81;4984707;28;20085;-47
2023/04/14 04:26:26;;;;;;;11.77;3.63;;;;;;;9.47;65.10;100970.06;4981426;28;20543;-44
2023/04/14 04:28:53;;;;;;;13.48;4.00;;;;;;;9.51;65.28;100965.81;4985515;28;20042;-44
2023/04/14 04:31:21;;;;;;;14.88;4.05;;;;;;;9.50;65.21;100967.53;4982065;28;20054;-47
2023/04/14 04:33:47;;;;;;;13.20;4.18;;;;;;;9.49;65.09;100973.59;4987330;28;20081;-44
2023/04/14 04:36:12;;;;;;;12.90;4.53;;;;;;;9.50;65.17;100979.66;4985430;28;20096;-44
2023/04/14 04:38:38;;;;;;;14.65;3.85;;;;;;;9.44;65.79;100971.75;4986974;28;20038;-43
2023/04/14 04:41:03;;;;;;;11.68;4.03;;;;;;;9.40;65.96;100973.38;4980747;28;20030;-45
2023/04/14 04:43:29;;;;;;;11.45;4.30;;;;;;;9.20;66.71;100978.22;4983807;28;21199;-43
2023/04/14 04:45:57;;;;;;;13.63;4.38;;;;;;;9.28;66.66;100971.44;4986700;28;20042;-44
2023/04/14 04:48:22;;;;;;;13.25;4.20;;;;;;;9.23;66.64;100975.66;4982948;28;20030;-43
2023/04/14 04:50:47;;;;;;;12.88;4.57;;;;;;;9.31;66.35;100979.31;4985548;28;20046;-48
2023/04/14 04:53:13;;;;;;;12.23;4.43;;;;;;;9.39;66.14;100983.78;4978976;28;20117;-43
2023/04/14 04:55:40;;;;;;;13.75;4.60;;;;;;;9.37;66.12;100978.56;4983931;28;20034;-44
2023/04/14 04:58:05;;;;;;;15.38;5.35;;;;;;;9.30;66.28;100976.66;4980531;28;20113;-47
2023/04/14 05:00:30;;;;;;;16.42;5.20;;;;;;;9.41;66.18;100982.06;4984392;28;20117;-46
2023/04/14 05:02:56;;;;;;;14.43;5.55;;;;;;;9.10;66.71;100976.25;4983878;28;20096;-44
2023/04/14 05:05:21;;;;;;;17.60;5.53;;;;;;;9.21;67.01;100979.09;4980863;28;20030;-45
2023/04/14 05:07:46;;;;;;;14.52;5.72;;;;;;;9.19;66.19;100975.59;4984207;28;20058;-46
2023/04/14 05:10:11;;;;;;;17.00;6.07;;;;;;;9.21;66.12;100974.75;4981665;28;20501;-44
2023/04/14 05:12:37;;;;;;;16.27;5.90;;;;;;;9.17;66.42;100975.53;4984713;28;20038;-45
2023/04/14 05:15:02;;;;;;;20.27;5.90;;;;;;;9.27;66.23;100979.22;4979853;28;20462;-44
2023/04/14 05:17:27;;;;;;;17.42;6.70;;;;;;;9.22;66.56;100983.44;4984044;28;20049;-45
2023/04/14 05:19:53;;;;;;;18.60;6.35;;;;;;;9.05;66.78;100984.81;4983802;28;20038;-45
2023/04/14 05:22:18;;;;;;;19.67;6.32;;;;;;;9.07;66.63;100983.13;4980158;28;20034;-43
2023/04/14 05:24:50;;;;;;;19.80;6.72;;;;;;;9.44;65.76;100985.63;4983404;28;20497;-45
2023/04/14 05:27:15;;;;;;;16.08;6.28;;;;;;;9.64;64.89;100988.59;4966353;28;20534;-43
2023/04/14 05:29:41;;;;;;;21.15;6.95;;;;;;;9.66;64.56;100992.13;4963841;28;20038;-44
2023/04/14 05:32:06;;;;;;;19.75;6.35;;;;;;;9.51;65.97;100991.84;4960481;28;20039;-43
2023/04/14 05:34:31;;;;;;;22.10;6.90;;;;;;;9.56;64.79;100996.28;4964085;28;20039;-50
2023/04/14 05:36:57;;;;;;;17.67;6.53;;;;;;;9.86;64.17;101003.78;4962725;28;20090;-44
2023/04/14 05:39:22;;;;;;;17.67;6.75;;;;;;;9.89;63.07;101005.56;4961911;28;20034;-44
2023/04/14 05:41:48;;;;;;;19.23;7.05;;;;;;;10.18;62.08;101008.72;4964728;28;20126;-44
2023/04/14 05:44:13;;;;;;;16.55;6.85;;;;;;;9.95;62.33;101003.06;4960507;28;20795;-45
2023/04/14 05:46:38;;;;;;;19.20;7.47;;;;;;;9.87;62.08;101008.16;4964996;28;20501;-48
2023/04/14 05:49:03;;;;;;;18.80;7.20;;;;;;;9.57;62.64;101005.84;4960524;28;20038;-45
2023/04/14 05:51:30;;;;;;;19.55;7.70;;;;;;;9.50;63.11;101009.19;4963695;28;20095;-44
2023/04/14 05:53:55;;;;;;;21.65;8.10;;;;;;;9.63;62.99;101012.91;4963911;28;20077;-43
2023/04/14 05:56:21;;;;;;;21.15;9.25;;;;;;;9.69;62.86;101006.09;4959111;28;20074;-49
2023/04/14 05:58:46;;;;;;;21.05;8.45;;;;;;;9.69;63.01;101000.88;4962091;28;20042;-42
2023/04/14 06:01:11;;;;;;;19.58;7.93;;;;;;;9.77;62.77;101011.41;4959804;28;20042;-43
2023/04/14 06:03:37;;;;;;;17.83;8.27;;;;;;;9.65;63.37;101001.66;4965455;28;20197;-46
2023/04/14 06:06:03;;;;;;;19.05;8.20;;;;;;;9.82;62.56;101007.16;4963265;28;20532;-44
2023/04/14 06:08:29;;;;;;;20.85;8.35;;;;;;;9.88;62.88;101003.81;4966618;28;20041;-44
2023/04/14 06:10:54;;;;;;;17.30;8.00;;;;;;;9.89;62.51;101002.94;4966401;28;20043;-47
2023/04/14 06:13:21;;;;;;;21.73;8.07;;;;;;;9.94;62.73;100999.56;4963233;28;20043;-43
2023/04/14 06:15:48;;;;;;;18.45;7.80;;;;;;;10.21;62.28;100998.34;4967282;28;20039;-44
2023/04/14 06:18:14;;;;;;;17.90;7.97;;;;;;;9.71;63.30;101000.88;4963055;28;20034;-45
2023/04/14 06:20:39;;;;;;;18.40;7.95;;;;;;;10.21;62.87;101001.81;4966902;28;20390;-45
2023/04/14 06:23:05;;;;;;;20.85;7.40;;;;;;;10.91;61.23;101008.13;4963146;28;20051;-42
2023/04/14 06:25:30;;;;;;;16.42;8.00;;;;;;;11.51;60.01;101009.78;4966368;28;20047;-46
2023/04/14 06:27:55;;;;;;;19.38;7.90;;;;;;;12.34;56.39;101000.19;4965158;28;20093;-44
2023/04/14 06:30:21;;;;;;;15.93;7.18;;;;;;;13.46;54.11;101002.66;4962406;28;20061;-43
2023/04/14 06:32:47;;;;;;;22.55;7.38;;;;;;;14.57;49.75;100998.47;4965581;28;20453;-49
2023/04/14 06:35:13;;;;;;;19.75;7.32;;;;;;;15.77;47.08;100987.56;4966321;28;20039;-44
2023/04/14 06:37:38;;;;;;;16.20;7.30;;;;;;;16.82;44.98;100992.00;4970645;28;20041;-46
2023/04/14 06:40:04;;;;;;;17.38;7.10;;;;;;;17.34;42.97;100980.84;4966071;28;20042;-46
2023/04/14 06:42:29;;;;;;;18.77;7.32;;;;;;;17.72;41.89;100983.88;4968195;28;20068;-44
2023/04/14 06:44:54;;;;;;;17.75;7.45;;;;;;;18.45;39.66;100984.50;4970385;28;20039;-45
2023/04/14 06:47:20;;;;;;;17.73;7.38;;;;;;;18.46;38.78;100978.34;4964057;28;20061;-44
2023/04/14 06:49:45;;;;;;;17.27;6.95;;;;;;;18.93;38.26;100981.00;4968415;28;20061;-42
2023/04/14 06:52:11;;;;;;;19.73;7.70;;;;;;;18.74;38.38;100982.25;4965557;28;20513;-44
2023/04/14 06:54:36;;;;;;;18.55;7.10;;;;;;;19.25;37.42;100982.16;4969257;28;20035;-44
2023/04/14 06:57:01;;;;;;;16.25;7.00;;;;;;;19.67;36.62;100978.63;4965042;28;20560;-44
2023/04/14 06:59:28;;;;;;;18.40;7.35;;;;;;;19.27;36.30;100981.19;4967359;28;20041;-44
2023/04/14 07:01:53;;;;;;;15.07;6.70;;;;;;;19.11;37.93;100976.25;4966214;28;20406;-48
2023/04/14 07:04:19;;;;;;;14.57;6.72;;;;;;;19.73;35.88;100972.31;4962128;28;20038;-44
2023/04/14 07:06:44;;;;;;;15.10;6.47;;;;;;;20.06;36.31;100963.59;4963893;28;20078;-48
2023/04/14 07:09:09;;;;;;;13.82;6.15;;;;;;;19.93;35.92;100964.81;4961249;28;20039;-45
2023/04/14 07:11:35;;;;;;;17.70;6.90;;;;;;;19.81;34.99;100970.38;4966516;28;20045;-44
2023/04/14 07:14:00;;;;;;;16.10;6.70;;;;;;;18.73;37.66;100972.56;4963487;28;20487;-57
2023/04/14 07:16:25;;;;;;;15.57;6.05;;;;;;;19.73;36.96;100964.38;4965200;28;20033;-45
2023/04/14 07:18:51;;;;;;;15.35;6.35;;;;;;;20.00;35.17;100962.88;4965722;28;20453;-44
2023/04/14 07:21:16;;;;;;;12.73;5.25;;;;;;;20.13;35.18;100967.81;4962371;28;20449;-45
2023/04/14 07:23:41;;;;;;;12.13;5.18;;;;;;;19.08;36.40;100966.63;4965432;28;20556;-43
2023/04/14 07:26:07;;;;;;;11.55;4.53;;;;;;;20.80;35.85;100960.81;4961829;28;20066;-47
2023/04/14 07:28:32;;;;;;;14.82;5.30;;;;;;;20.18;35.07;100962.44;4964476;28;20026;-44
2023/04/14 07:30:57;;;;;;;10.40;4.85;;;;;;;19.97;35.32;100963.81;4965057;28;20094;-44
2023/04/14 07:33:23;;;;;;;11.18;4.45;;;;;;;19.97;34.90;100955.00;4961582;28;20052;-48
2023/04/14 07:35:49;;;;;;;9.93;4.30;;;;;;;19.78;35.01;100950.13;4964851;28;20070;-45
2023/04/14 07:38:14;;;;;;;9.98;3.97;;;;;;;19.07;36.20;100953.44;4960964;28;20027;-43
2023/04/14 07:40:40;;;;;;;10.30;4.40;;;;;;;18.70;37.30;100954.16;4964756;28;20042;-43
2023/04/14 07:43:06;;;;;;;11.20;4.07;;;;;;;19.54;35.96;100950.69;4961749;28;20061;-45
2023/04/14 07:45:31;;;;;;;9.40;4.10;;;;;;;18.75;37.61;100960.22;4965472;28;20118;-49
2023/04/14 07:47:57;;;;;;;7.55;3.53;;;;;;;19.47;36.29;100953.50;4964615;28;20560;-44
2023/04/14 07:50:22;;;;;;;10.27;3.97;;;;;;;18.78;36.85;100951.38;4961108;28;20047;-46
2023/04/14 07:52:48;;;;;;;10.57;3.83;;;;;;;18.59;37.81;100950.84;4964524;28;20509;-45
2023/04/14 07:55:13;;;;;;;11.27;3.88;;;;;;;18.93;36.40;100953.72;4960428;28;20026;-44
2023/04/14 07:57:39;;;;;;;9.27;4.30;;;;;;;17.98;39.51;100945.72;4964717;28;20046;-45
2023/04/14 08:00:05;;;;;;;11.57;4.53;;;;;;;17.40;41.21;100957.94;4960964;28;20031;-44
2023/04/14 08:02:31;;;;;;;11.70;4.85;;;;;;;16.77;43.16;100961.34;4964074;28;20066;-45
2023/04/14 08:04:56;;;;;;;10.18;4.57;;;;;;;16.66;43.31;100956.16;4964385;28;20461;-48
2023/04/14 08:07:22;;;;;;;11.55;5.10;;;;;;;16.24;44.07;100950.38;4960811;28;20042;-45
2023/04/14 08:09:50;;;;;;;11.60;5.35;;;;;;;15.54;46.35;100950.03;4963969;28;20054;-45
2023/04/14 08:12:15;;;;;;;11.43;5.07;;;;;;;15.79;46.53;100949.00;4960398;28;20039;-45
2023/04/14 08:14:41;;;;;;;13.52;4.93;;;;;;;15.55;46.95;100954.41;4962866;28;20444;-47
2023/04/14 08:17:06;;;;;;;10.48;4.70;;;;;;;15.92;46.24;100948.91;4961557;28;20038;-43
2023/04/14 08:19:32;;;;;;;12.73;4.65;;;;;;;15.93;45.80;100956.78;4966611;28;20030;-44
2023/04/14 08:21:58;;;;;;;10.85;4.28;;;;;;;15.77;46.36;100955.16;4967704;28;20047;-46
2023/04/14 08:24:23;;;;;;;9.45;4.35;;;;;;;15.03;47.40;100954.59;4963056;28;20406;-44
2023/04/14 08:26:48;;;;;;;12.05;4.55;;;;;;;15.61;47.17;100957.00;4964426;28;20185;-44
2023/04/14 08:29:14;;;;;;;9.95;4.00;;;;;;;15.58;47.64;100957.00;4963173;28;20362;-48
2023/04/14 08:31:39;;;;;;;11.10;3.70;;;;;;;15.49;46.70;100953.53;4966243;28;20042;-45
2023/04/14 08:34:05;;;;;;;8.15;3.50;;;;;;;15.18;46.56;100956.31;4960728;28;20141;-45
2023/04/14 08:36:30;;;;;;;9.43;3.38;;;;;;;15.45;45.67;100952.66;4963796;28;20050;-47
2023/04/14 08:38:59;;;;;;;8.75;3.50;;;;;;;15.70;46.53;100951.69;4964967;28;20493;-45
2023/04/14 08:41:25;;;;;;;12.00;3.38;;;;;;;15.42;46.26;100955.31;4961226;28;20393;-48
2023/04/14 08:43:50;;;;;;;7.93;3.00;;;;;;;15.76;45.39;100945.50;4963878;28;20564;-46
2023/04/14 08:46:18;;;;;;;7.35;3.17;;;;;;;15.65;44.76;100945.59;4960215;28;20030;-44
2023/04/14 08:48:46;;;;;;;7.40;3.00;;;;;;;16.05;44.32;100940.91;4964184;28;20042;-44
2023/04/14 08:51:14;;;;;;;7.88;2.90;;;;;;;15.94;45.62;100941.88;4962181;28;20034;-46
2023/04/14 08:53:44;;;;;;;9.02;3.35;;;;;;;15.92;44.34;100939.25;4965823;28;20548;-43
2023/04/14 08:56:13;;;;;;;7.50;3.50;;;;;;;16.19;44.38;100944.31;4961377;28;20050;-44
2023/04/14 08:58:39;;;;;;;8.85;2.85;;;;;;;15.80;44.38;100949.84;4964972;28;20049;-44
2023/04/14 09:01:05;;;;;;;6.07;3.00;;;;;;;15.96;44.77;100937.47;4961066;28;20042;-45
2023/04/14 09:03:31;;;;;;;7.20;2.80;;;;;;;15.55;44.28;100946.53;4987675;23;20057;-40
2023/04/14 09:05:56;;;;;;;7.00;2.33;;;;;;;15.77;44.49;100944.63;4980256;28;20413;-40
2023/04/14 09:08:22;;;;;;;5.38;2.20;;;;;;;15.62;43.75;100939.44;4980077;28;20030;-42
2023/04/14 09:10:49;;;;;;;5.47;2.22;;;;;;;15.85;44.38;100932.31;4982267;28;20043;-41
2023/04/14 09:13:15;;;;;;;5.53;2.60;;;;;;;15.93;44.31;100940.13;4979094;28;20115;-43
2023/04/14 09:15:41;;;;;;;7.50;2.60;;;;;;;16.22;43.13;100931.09;4986329;28;20504;-39
2023/04/14 09:18:06;;;;;;;6.55;2.50;;;;;;;16.18;42.86;100939.03;4984628;28;20030;-42
2023/04/14 09:20:32;;;;;;;7.65;2.70;;;;;;;15.68;44.26;100935.03;4987173;28;20033;-41
2023/04/14 09:22:58;;;;;;;7.50;2.58;;;;;;;15.49;44.38;100936.00;4987031;28;20523;-41
2023/04/14 09:25:23;;;;;;;5.97;2.00;;;;;;;15.71;43.92;100935.03;4986344;28;20043;-40
2023/04/14 09:27:49;;;;;;;4.60;1.75;;;;;;;16.12;42.77;100939.09;4993458;28;20523;-45
2023/04/14 09:30:16;;;;;;;3.88;1.60;;;;;;;16.19;41.22;100940.78;4985561;28;20026;-42
2023/04/14 09:32:43;;;;;;;5.43;1.77;;;;;;;15.40;42.76;100944.81;4985594;28;20038;-39
2023/04/14 09:35:12;;;;;;;5.85;1.70;;;;;;;15.73;42.33;100937.66;4981674;28;20054;-45
2023/04/14 09:37:45;;;;;;;7.60;1.73;;;;;;;16.08;41.76;100922.47;4985775;28;20035;-40
2023/04/14 09:40:26;;;;;;;4.40;1.52;;;;;;;16.07;42.14;100925.13;4985461;28;20088;-40
2023/04/14 09:42:53;;;;;;;7.20;1.70;;;;;;;16.06;41.51;100916.34;4989107;28;20536;-40
2023/04/14 09:45:18;;;;;;;5.50;1.50;;;;;;;16.19;41.13;100925.88;4984958;28;20037;-40
2023/04/14 09:47:43;;;;;;;4.13;1.60;;;;;;;16.47;41.29;100926.50;4988220;28;20400;-41
2023/04/14 09:50:09;;;;;;;6.30;1.63;;;;;;;16.73;40.49;100925.38;4985813;28;20037;-40
2023/04/14 09:52:43;;;;;;;3.75;1.40;;;;;;;16.34;40.27;100921.38;4988801;28;20043;-40
2023/04/14 09:55:10;;;;;;;8.60;1.50;;;;;;;16.01;40.73;100910.25;4984584;28;20031;-41
2023/04/14 09:57:37;;;;;;;6.90;1.63;;;;;;;15.94;40.78;100910.31;4988337;28;20034;-40
2023/04/14 10:00:23;;;;;;;3.80;1.60;;;;;;;16.41;41.21;100912.53;4984827;28;20058;-40
2023/04/14 10:03:00;;;;;;;4.35;1.70;;;;;;;16.21;41.24;100920.63;4988409;28;20114;-40
2023/04/14 10:05:26;;;;;;;6.65;2.25;;;;;;;16.32;41.65;100916.13;4984519;28;20501;-40
2023/04/14 10:07:52;;;;;;;5.13;2.10;;;;;;;16.56;41.73;100909.75;4987369;28;20117;-40
2023/04/14 10:10:17;;;;;;;6.40;2.10;;;;;;;16.57;42.05;100901.84;4982628;28;20030;-42
2023/04/14 10:12:44;;;;;;;4.82;1.90;;;;;;;16.86;40.17;100905.94;4986780;28;20054;-40
2023/04/14 10:15:11;;;;;;;7.55;2.60;;;;;;;16.72;40.65;100899.94;4983146;28;20149;-40
2023/04/14 10:17:38;;;;;;;8.00;3.17;;;;;;;16.32;41.31;100912.63;4986625;28;20121;-40
2023/04/14 10:20:06;;;;;;;7.70;2.38;;;;;;;16.73;41.23;100910.47;4983102;28;20041;-40
2023/04/14 10:22:32;;;;;;;8.43;2.88;;;;;;;16.47;41.96;100902.81;4987148;28;20038;-40
2023/04/14 10:24:58;;;;;;;7.22;2.97;;;;;;;16.38;41.48;100904.66;4987231;28;20035;-42
2023/04/14 10:27:26;;;;;;;7.60;3.00;;;;;;;16.35;42.39;100900.28;4984644;28;20038;-40
2023/04/14 10:29:52;;;;;;;6.90;2.80;;;;;;;16.99;41.38;100897.00;4986913;28;20121;-43
2023/04/14 10:32:19;;;;;;;5.85;2.92;;;;;;;16.55;42.10;100898.34;4982687;28;20125;-41
2023/04/14 10:35:04;;;;;;;6.82;2.90;;;;;;;16.89;40.95;100905.91;4986456;28;20031;-40
2023/04/14 10:37:30;;;;;;;8.07;2.47;;;;;;;17.10;39.84;100902.13;4982778;28;20034;-42
2023/04/14 10:39:57;;;;;;;6.70;2.40;;;;;;;17.13;39.77;100900.34;4984675;28;20445;-44
2023/04/14 10:42:23;;;;;;;9.13;2.20;;;;;;;17.10;39.38;100887.19;4981440;28;20034;-42
2023/04/14 10:45:05;;;;;;;7.30;2.17;;;;;;;17.27;38.70;100889.59;4984709;28;20117;-40
2023/04/14 10:47:32;;;;;;;4.70;1.80;;;;;;;17.58;38.28;100869.81;4982565;28;20444;-43
2023/04/14 10:50:09;;;;;;;4.57;1.75;;;;;;;17.50;38.29;100876.97;4983990;28;20548;-39
2023/04/14 10:52:34;;;;;;;6.38;1.85;;;;;;;17.59;37.45;100870.69;4982852;28;20354;-43
2023/04/14 10:55:07;;;;;;;4.85;2.10;;;;;;;17.97;37.13;100878.88;4983989;28;20035;-43
2023/04/14 10:57:39;;;;;;;4.35;2.05;;;;;;;18.33;36.87;100876.50;4981282;28;20030;-44
2023/04/14 11:00:36;;;;;;;4.05;1.65;;;;;;;18.69;36.04;100880.25;4980896;28;20034;-41
2023/04/14 11:03:01;;;;;;;4.50;1.90;;;;;;;18.05;36.13;100866.41;4979399;28;20577;-39
2023/04/14 11:05:26;;;;;;;6.47;2.00;;;;;;;17.95;36.67;100869.25;4984525;28;20124;-45
2023/04/14 11:07:55;;;;;;;8.65;1.80;;;;;;;18.01;36.56;100882.34;4984321;28;20077;-41
2023/04/14 11:10:20;;;;;;;7.32;1.95;;;;;;;17.77;35.78;100866.03;4980056;28;20056;-39
2023/04/14 11:12:47;;;;;;;5.90;1.80;;;;;;;17.67;36.38;100867.06;4984651;28;20046;-41
2023/04/14 11:15:15;;;;;;;4.18;1.80;;;;;;;17.74;36.56;100870.50;4980376;28;20061;-44
2023/04/14 11:17:42;;;;;;;5.72;2.10;;;;;;;18.14;36.09;100870.69;4984507;28;20408;-45
2023/04/14 11:20:18;;;;;;;5.70;1.90;;;;;;;17.79;36.38;100868.66;4980464;28;20084;-45
2023/04/14 11:22:45;;;;;;;6.97;1.95;;;;;;;18.29;35.52;100869.53;4983805;28;20592;-42
2023/04/14 11:25:12;;;;;;;7.22;2.47;;;;;;;18.41;35.46;100872.84;4980285;28;20026;-41